sensor_id;sensor_type;location;lat;lon;timestamp;pressure;altitude;pressure_sealevel;temperature;humidity
19286;BME280;9776;50.798;6.430;2023-05-31T00:02:00;100998.09;;;17.82;52.39
19286;BME280;9776;50.798;6.430;2023-05-31T00:04:27;100998.56;;;17.86;52.24
19286;BME280;9776;50.798;6.430;2023-05-31T00:06:53;100989.44;;;17.80;52.34
19286;BME280;9776;50.798;6.430;2023-05-31T00:09:20;100994.13;;;17.78;52.33
19286;BME280;9776;50.798;6.430;2023-05-31T00:11:48;100995.16;;;17.77;52.27
19286;BME280;9776;50.798;6.430;2023-05-31T00:14:15;100991.81;;;17.75;52.30
19286;BME280;9776;50.798;6.430;2023-05-31T00:16:41;100996.09;;;17.62;52.39
19286;BME280;9776;50.798;6.430;2023-05-31T00:19:08;100989.44;;;17.57;52.50
19286;BME280;9776;50.798;6.430;2023-05-31T00:21:35;100992.31;;;17.56;52.42
19286;BME280;9776;50.798;6.430;2023-05-31T00:24:01;100998.28;;;17.58;52.31
19286;BME280;9776;50.798;6.430;2023-05-31T00:26:28;101002.34;;;17.54;52.21
19286;BME280;9776;50.798;6.430;2023-05-31T00:28:56;100998.78;;;17.53;52.27
19286;BME280;9776;50.798;6.430;2023-05-31T00:31:23;100992.81;;;17.51;52.20
19286;BME280;9776;50.798;6.430;2023-05-31T00:33:49;100999.03;;;17.44;52.42
19286;BME280;9776;50.798;6.430;2023-05-31T00:36:16;101001.03;;;17.42;52.44
19286;BME280;9776;50.798;6.430;2023-05-31T00:38:43;100999.56;;;17.39;52.52
19286;BME280;9776;50.798;6.430;2023-05-31T00:41:10;101003.22;;;17.38;52.53
19286;BME280;9776;50.798;6.430;2023-05-31T00:43:36;100998.44;;;17.34;52.54
19286;BME280;9776;50.798;6.430;2023-05-31T00:46:05;100992.63;;;17.30;52.82
19286;BME280;9776;50.798;6.430;2023-05-31T00:48:33;101004.47;;;17.28;52.78
19286;BME280;9776;50.798;6.430;2023-05-31T00:50:59;100997.81;;;17.24;52.72
19286;BME280;9776;50.798;6.430;2023-05-31T00:53:27;101007.72;;;17.15;53.02
19286;BME280;9776;50.798;6.430;2023-05-31T00:55:53;100999.56;;;17.09;52.91
19286;BME280;9776;50.798;6.430;2023-05-31T00:58:22;100999.63;;;17.00;52.97
19286;BME280;9776;50.798;6.430;2023-05-31T01:00:49;101002.28;;;17.00;52.89
19286;BME280;9776;50.798;6.430;2023-05-31T01:03:17;101002.97;;;16.94;53.20
19286;BME280;9776;50.798;6.430;2023-05-31T01:05:44;100996.34;;;16.90;53.43
19286;BME280;9776;50.798;6.430;2023-05-31T01:08:11;101003.38;;;16.83;53.33
19286;BME280;9776;50.798;6.430;2023-05-31T01:10:39;101004.75;;;16.79;53.45
19286;BME280;9776;50.798;6.430;2023-05-31T01:13:12;101005.19;;;16.83;53.62
19286;BME280;9776;50.798;6.430;2023-05-31T01:15:49;101006.38;;;16.80;53.57
19286;BME280;9776;50.798;6.430;2023-05-31T01:18:22;101003.72;;;16.80;53.26
19286;BME280;9776;50.798;6.430;2023-05-31T01:20:52;101001.41;;;16.77;53.48
19286;BME280;9776;50.798;6.430;2023-05-31T01:23:34;101012.41;;;16.74;53.28
19286;BME280;9776;50.798;6.430;2023-05-31T01:28:59;101012.75;;;16.71;53.61
19286;BME280;9776;50.798;6.430;2023-05-31T01:31:27;101008.59;;;16.69;53.52
19286;BME280;9776;50.798;6.430;2023-05-31T01:33:56;101005.63;;;16.64;53.40
19286;BME280;9776;50.798;6.430;2023-05-31T01:36:23;101002.81;;;16.57;53.61
19286;BME280;9776;50.798;6.430;2023-05-31T01:38:50;101001.31;;;16.55;53.51
19286;BME280;9776;50.798;6.430;2023-05-31T01:41:17;101004.81;;;16.47;53.70
19286;BME280;9776;50.798;6.430;2023-05-31T01:43:46;101007.47;;;16.47;53.57
19286;BME280;9776;50.798;6.430;2023-05-31T01:46:16;101013.78;;;16.46;53.73
19286;BME280;9776;50.798;6.430;2023-05-31T01:48:45;101011.16;;;16.38;53.92
19286;BME280;9776;50.798;6.430;2023-05-31T01:51:14;101018.84;;;16.33;53.91
19286;BME280;9776;50.798;6.430;2023-05-31T01:53:41;101013.66;;;16.31;53.88
19286;BME280;9776;50.798;6.430;2023-05-31T01:56:08;101010.16;;;16.31;53.88
19286;BME280;9776;50.798;6.430;2023-05-31T01:58:36;101007.84;;;16.28;53.97
19286;BME280;9776;50.798;6.430;2023-05-31T02:01:03;101003.03;;;16.23;53.96
19286;BME280;9776;50.798;6.430;2023-05-31T02:03:32;101001.69;;;16.19;53.87
19286;BME280;9776;50.798;6.430;2023-05-31T02:06:00;101011.53;;;16.19;53.83
19286;BME280;9776;50.798;6.430;2023-05-31T02:08:27;101004.22;;;16.13;54.01
19286;BME280;9776;50.798;6.430;2023-05-31T02:10:54;101005.06;;;16.05;54.21
19286;BME280;9776;50.798;6.430;2023-05-31T02:13:23;101001.56;;;16.05;54.00
19286;BME280;9776;50.798;6.430;2023-05-31T02:15:51;101005.88;;;16.06;54.00
19286;BME280;9776;50.798;6.430;2023-05-31T02:18:19;100994.41;;;16.05;54.20
19286;BME280;9776;50.798;6.430;2023-05-31T02:20:48;100999.22;;;16.02;54.12
19286;BME280;9776;50.798;6.430;2023-05-31T02:23:15;100995.91;;;16.00;53.89
19286;BME280;9776;50.798;6.430;2023-05-31T02:25:44;100995.72;;;15.93;54.54
19286;BME280;9776;50.798;6.430;2023-05-31T02:28:11;100993.44;;;15.90;54.27
19286;BME280;9776;50.798;6.430;2023-05-31T02:30:37;101002.91;;;15.84;54.43
19286;BME280;9776;50.798;6.430;2023-05-31T02:33:05;100999.25;;;15.77;54.36
19286;BME280;9776;50.798;6.430;2023-05-31T02:35:32;101005.06;;;15.73;54.54
19286;BME280;9776;50.798;6.430;2023-05-31T02:38:01;101003.06;;;15.59;54.70
19286;BME280;9776;50.798;6.430;2023-05-31T02:40:27;101012.88;;;15.50;54.90
19286;BME280;9776;50.798;6.430;2023-05-31T02:42:54;101009.31;;;15.33;55.45
19286;BME280;9776;50.798;6.430;2023-05-31T02:45:20;101012.28;;;15.22;55.77
19286;BME280;9776;50.798;6.430;2023-05-31T02:47:47;101000.16;;;15.20;55.90
19286;BME280;9776;50.798;6.430;2023-05-31T02:50:14;100998.81;;;15.24;56.06
19286;BME280;9776;50.798;6.430;2023-05-31T02:52:40;101002.66;;;15.29;55.65
19286;BME280;9776;50.798;6.430;2023-05-31T02:55:08;100992.53;;;15.33;55.79
19286;BME280;9776;50.798;6.430;2023-05-31T02:57:35;100989.00;;;15.24;55.82
19286;BME280;9776;50.798;6.430;2023-05-31T03:00:03;100996.00;;;15.25;55.78
19286;BME280;9776;50.798;6.430;2023-05-31T03:02:36;100992.19;;;15.20;56.02
19286;BME280;9776;50.798;6.430;2023-05-31T03:05:03;100991.34;;;15.19;55.83
19286;BME280;9776;50.798;6.430;2023-05-31T03:07:30;101006.13;;;15.22;55.96
19286;BME280;9776;50.798;6.430;2023-05-31T03:09:56;101000.81;;;15.22;55.91
19286;BME280;9776;50.798;6.430;2023-05-31T03:12:24;101001.44;;;15.08;56.00
19286;BME280;9776;50.798;6.430;2023-05-31T03:14:51;101002.59;;;14.97;56.32
19286;BME280;9776;50.798;6.430;2023-05-31T03:17:18;101008.38;;;14.93;56.42
19286;BME280;9776;50.798;6.430;2023-05-31T03:19:45;100999.56;;;14.92;56.35
19286;BME280;9776;50.798;6.430;2023-05-31T03:22:12;101002.22;;;14.92;56.53
19286;BME280;9776;50.798;6.430;2023-05-31T03:24:38;101003.44;;;14.98;56.30
19286;BME280;9776;50.798;6.430;2023-05-31T03:27:05;101008.41;;;15.01;56.09
19286;BME280;9776;50.798;6.430;2023-05-31T03:29:37;101005.59;;;15.02;55.73
19286;BME280;9776;50.798;6.430;2023-05-31T03:32:04;101012.06;;;15.00;55.61
19286;BME280;9776;50.798;6.430;2023-05-31T03:34:31;101014.00;;;14.90;55.91
19286;BME280;9776;50.798;6.430;2023-05-31T03:37:00;101014.00;;;14.90;55.95
19286;BME280;9776;50.798;6.430;2023-05-31T03:39:26;101013.88;;;14.91;55.61
19286;BME280;9776;50.798;6.430;2023-05-31T03:41:53;101012.00;;;14.84;55.74
19286;BME280;9776;50.798;6.430;2023-05-31T03:44:20;101012.59;;;14.69;56.30
19286;BME280;9776;50.798;6.430;2023-05-31T03:46:48;101011.22;;;14.57;56.43
19286;BME280;9776;50.798;6.430;2023-05-31T03:49:15;101012.25;;;14.64;56.25
19286;BME280;9776;50.798;6.430;2023-05-31T03:51:42;101003.31;;;14.65;56.15
19286;BME280;9776;50.798;6.430;2023-05-31T03:54:08;101000.66;;;14.65;56.12
19286;BME280;9776;50.798;6.430;2023-05-31T03:56:35;101000.47;;;14.67;56.04
19286;BME280;9776;50.798;6.430;2023-05-31T03:59:02;101003.31;;;14.65;56.02
19286;BME280;9776;50.798;6.430;2023-05-31T04:01:28;101003.81;;;14.43;56.66
19286;BME280;9776;50.798;6.430;2023-05-31T04:03:56;101005.88;;;14.32;56.94
19286;BME280;9776;50.798;6.430;2023-05-31T04:06:23;101007.81;;;14.39;56.60
19286;BME280;9776;50.798;6.430;2023-05-31T04:08:52;101003.03;;;14.43;56.83
19286;BME280;9776;50.798;6.430;2023-05-31T04:11:18;101002.22;;;14.50;56.81
19286;BME280;9776;50.798;6.430;2023-05-31T04:13:45;101010.50;;;14.47;56.74
19286;BME280;9776;50.798;6.430;2023-05-31T04:16:12;101005.72;;;14.51;56.79
19286;BME280;9776;50.798;6.430;2023-05-31T04:18:38;101006.38;;;14.53;56.84
19286;BME280;9776;50.798;6.430;2023-05-31T04:21:07;101010.22;;;14.58;56.79
19286;BME280;9776;50.798;6.430;2023-05-31T04:23:33;101005.56;;;14.60;56.82
19286;BME280;9776;50.798;6.430;2023-05-31T04:26:01;101009.75;;;14.63;56.83
19286;BME280;9776;50.798;6.430;2023-05-31T04:28:28;101016.28;;;14.68;56.99
19286;BME280;9776;50.798;6.430;2023-05-31T04:30:57;101012.97;;;14.74;56.87
19286;BME280;9776;50.798;6.430;2023-05-31T04:33:24;101020.59;;;14.77;56.95
19286;BME280;9776;50.798;6.430;2023-05-31T04:35:56;101014.94;;;14.72;57.16
19286;BME280;9776;50.798;6.430;2023-05-31T04:38:24;101021.69;;;14.59;57.78
19286;BME280;9776;50.798;6.430;2023-05-31T04:40:53;101014.25;;;14.62;58.21
19286;BME280;9776;50.798;6.430;2023-05-31T04:43:20;101017.91;;;14.69;58.08
19286;BME280;9776;50.798;6.430;2023-05-31T04:45:47;101017.44;;;14.74;58.28
19286;BME280;9776;50.798;6.430;2023-05-31T04:48:14;101008.00;;;14.80;58.30
19286;BME280;9776;50.798;6.430;2023-05-31T04:50:42;101010.72;;;15.04;57.78
19286;BME280;9776;50.798;6.430;2023-05-31T04:53:09;101011.78;;;15.27;57.28
19286;BME280;9776;50.798;6.430;2023-05-31T04:55:37;101003.84;;;15.43;57.28
19286;BME280;9776;50.798;6.430;2023-05-31T04:58:04;101000.41;;;15.59;57.27
19286;BME280;9776;50.798;6.430;2023-05-31T05:00:31;101004.41;;;15.71;56.91
19286;BME280;9776;50.798;6.430;2023-05-31T05:02:57;101007.56;;;15.90;56.99
19286;BME280;9776;50.798;6.430;2023-05-31T05:05:24;101009.72;;;16.11;56.54
19286;BME280;9776;50.798;6.430;2023-05-31T05:07:52;101012.38;;;16.27;56.30
19286;BME280;9776;50.798;6.430;2023-05-31T05:10:18;101007.63;;;16.45;55.93
19286;BME280;9776;50.798;6.430;2023-05-31T05:12:46;101009.28;;;16.63;56.02
19286;BME280;9776;50.798;6.430;2023-05-31T05:15:13;101016.56;;;16.77;55.88
19286;BME280;9776;50.798;6.430;2023-05-31T05:17:40;101022.66;;;16.93;55.36
19286;BME280;9776;50.798;6.430;2023-05-31T05:20:10;101025.91;;;17.12;55.45
19286;BME280;9776;50.798;6.430;2023-05-31T05:22:37;101029.31;;;17.28;55.31
19286;BME280;9776;50.798;6.430;2023-05-31T05:25:04;101026.75;;;17.35;55.42
19286;BME280;9776;50.798;6.430;2023-05-31T05:27:31;101019.72;;;17.42;55.25
19286;BME280;9776;50.798;6.430;2023-05-31T05:29:59;101022.31;;;17.58;54.99
19286;BME280;9776;50.798;6.430;2023-05-31T05:32:26;101029.91;;;17.69;54.94
19286;BME280;9776;50.798;6.430;2023-05-31T05:34:52;101031.56;;;17.70;54.79
19286;BME280;9776;50.798;6.430;2023-05-31T05:37:19;101032.53;;;17.77;54.79
19286;BME280;9776;50.798;6.430;2023-05-31T05:39:45;101034.69;;;17.96;54.51
19286;BME280;9776;50.798;6.430;2023-05-31T05:42:12;101031.88;;;18.12;54.29
19286;BME280;9776;50.798;6.430;2023-05-31T05:44:39;101032.81;;;18.20;53.85
19286;BME280;9776;50.798;6.430;2023-05-31T05:47:07;101030.28;;;18.41;53.61
19286;BME280;9776;50.798;6.430;2023-05-31T05:49:34;101024.88;;;18.63;53.13
19286;BME280;9776;50.798;6.430;2023-05-31T05:52:00;101024.75;;;18.86;52.75
19286;BME280;9776;50.798;6.430;2023-05-31T05:54:27;101028.97;;;19.10;52.11
19286;BME280;9776;50.798;6.430;2023-05-31T05:56:53;101021.16;;;19.30;51.88
19286;BME280;9776;50.798;6.430;2023-05-31T05:59:20;101023.31;;;19.55;51.06
19286;BME280;9776;50.798;6.430;2023-05-31T06:01:47;101025.81;;;19.78;50.72
19286;BME280;9776;50.798;6.430;2023-05-31T06:04:15;101020.16;;;19.94;50.00
19286;BME280;9776;50.798;6.430;2023-05-31T06:06:42;101029.66;;;20.18;49.59
19286;BME280;9776;50.798;6.430;2023-05-31T06:09:08;101020.97;;;20.37;49.31
19286;BME280;9776;50.798;6.430;2023-05-31T06:11:35;101015.50;;;20.58;48.96
19286;BME280;9776;50.798;6.430;2023-05-31T06:14:01;101015.59;;;20.78;48.28
19286;BME280;9776;50.798;6.430;2023-05-31T06:16:28;101014.50;;;21.00;47.94
19286;BME280;9776;50.798;6.430;2023-05-31T06:18:55;101016.03;;;21.22;47.32
19286;BME280;9776;50.798;6.430;2023-05-31T06:21:23;101023.31;;;21.41;47.12
19286;BME280;9776;50.798;6.430;2023-05-31T06:23:49;101024.41;;;21.60;46.73
19286;BME280;9776;50.798;6.430;2023-05-31T06:26:16;101027.09;;;21.80;46.34
19286;BME280;9776;50.798;6.430;2023-05-31T06:28:44;101016.00;;;21.96;45.92
19286;BME280;9776;50.798;6.430;2023-05-31T06:31:11;101020.72;;;22.14;45.44
19286;BME280;9776;50.798;6.430;2023-05-31T06:33:37;101023.22;;;22.22;45.15
19286;BME280;9776;50.798;6.430;2023-05-31T06:36:05;101023.38;;;22.40;44.95
19286;BME280;9776;50.798;6.430;2023-05-31T06:38:33;101027.69;;;22.74;44.28
19286;BME280;9776;50.798;6.430;2023-05-31T06:40:59;101017.44;;;23.02;43.49
19286;BME280;9776;50.798;6.430;2023-05-31T06:43:26;101020.59;;;23.30;43.15
19286;BME280;9776;50.798;6.430;2023-05-31T06:45:53;101024.88;;;23.51;42.78
19286;BME280;9776;50.798;6.430;2023-05-31T06:48:19;101021.44;;;23.68;42.34
19286;BME280;9776;50.798;6.430;2023-05-31T06:50:46;101019.00;;;23.92;41.75
19286;BME280;9776;50.798;6.430;2023-05-31T06:53:12;101015.47;;;24.16;41.45
19286;BME280;9776;50.798;6.430;2023-05-31T06:55:40;101016.28;;;24.41;40.94
19286;BME280;9776;50.798;6.430;2023-05-31T06:58:07;101020.69;;;24.54;40.42
19286;BME280;9776;50.798;6.430;2023-05-31T07:00:34;101019.16;;;24.64;40.02
19286;BME280;9776;50.798;6.430;2023-05-31T07:03:01;101020.66;;;24.78;39.66
19286;BME280;9776;50.798;6.430;2023-05-31T07:05:28;101020.75;;;24.90;39.27
19286;BME280;9776;50.798;6.430;2023-05-31T07:07:54;101024.88;;;25.22;38.72
19286;BME280;9776;50.798;6.430;2023-05-31T07:10:21;101023.94;;;25.47;38.24
19286;BME280;9776;50.798;6.430;2023-05-31T07:12:49;101020.16;;;25.77;37.39
19286;BME280;9776;50.798;6.430;2023-05-31T07:15:16;101023.97;;;26.00;36.68
19286;BME280;9776;50.798;6.430;2023-05-31T07:17:43;101012.22;;;26.06;36.49
19286;BME280;9776;50.798;6.430;2023-05-31T07:20:10;101012.78;;;26.08;36.26
19286;BME280;9776;50.798;6.430;2023-05-31T07:22:37;101016.00;;;26.28;35.92
19286;BME280;9776;50.798;6.430;2023-05-31T07:25:04;101021.31;;;26.46;35.24
19286;BME280;9776;50.798;6.430;2023-05-31T07:27:31;101019.41;;;26.46;35.05
19286;BME280;9776;50.798;6.430;2023-05-31T07:29:59;101022.53;;;26.78;34.63
19286;BME280;9776;50.798;6.430;2023-05-31T07:32:26;101022.97;;;26.98;34.50
19286;BME280;9776;50.798;6.430;2023-05-31T07:34:53;101025.91;;;27.37;33.88
19286;BME280;9776;50.798;6.430;2023-05-31T07:37:19;101018.31;;;27.50;33.66
19286;BME280;9776;50.798;6.430;2023-05-31T07:39:46;101022.97;;;27.67;33.33
19286;BME280;9776;50.798;6.430;2023-05-31T07:42:12;101016.63;;;27.94;32.92
19286;BME280;9776;50.798;6.430;2023-05-31T07:44:39;101015.66;;;28.34;32.07
19286;BME280;9776;50.798;6.430;2023-05-31T07:47:08;101018.97;;;28.19;32.18
19286;BME280;9776;50.798;6.430;2023-05-31T07:49:34;101013.44;;;28.14;32.27
19286;BME280;9776;50.798;6.430;2023-05-31T07:52:01;101012.63;;;28.52;31.65
19286;BME280;9776;50.798;6.430;2023-05-31T07:54:29;101012.38;;;28.70;31.76
19286;BME280;9776;50.798;6.430;2023-05-31T07:56:56;101004.66;;;29.05;31.21
19286;BME280;9776;50.798;6.430;2023-05-31T07:59:23;101005.13;;;29.46;30.91
19286;BME280;9776;50.798;6.430;2023-05-31T08:01:50;101006.84;;;29.84;30.28
19286;BME280;9776;50.798;6.430;2023-05-31T08:04:18;101010.38;;;30.16;29.27
19286;BME280;9776;50.798;6.430;2023-05-31T08:06:44;101003.66;;;30.33;29.21
19286;BME280;9776;50.798;6.430;2023-05-31T08:09:11;101001.16;;;30.74;28.89
19286;BME280;9776;50.798;6.430;2023-05-31T08:11:38;101008.44;;;31.15;28.02
19286;BME280;9776;50.798;6.430;2023-05-31T08:14:04;101001.91;;;31.31;27.97
19286;BME280;9776;50.798;6.430;2023-05-31T08:16:32;101000.34;;;31.61;27.50
19286;BME280;9776;50.798;6.430;2023-05-31T08:18:59;100995.47;;;31.83;27.44
19286;BME280;9776;50.798;6.430;2023-05-31T08:21:27;100997.09;;;31.89;27.28
19286;BME280;9776;50.798;6.430;2023-05-31T08:23:54;100984.53;;;32.08;26.73
19286;BME280;9776;50.798;6.430;2023-05-31T08:26:21;100999.19;;;32.58;26.26
19286;BME280;9776;50.798;6.430;2023-05-31T08:28:48;100981.94;;;33.21;25.80
19286;BME280;9776;50.798;6.430;2023-05-31T08:31:15;100986.59;;;33.64;24.94
19286;BME280;9776;50.798;6.430;2023-05-31T08:33:52;100988.66;;;33.78;24.35
19286;BME280;9776;50.798;6.430;2023-05-31T08:36:19;100990.94;;;34.28;24.04
19286;BME280;9776;50.798;6.430;2023-05-31T08:38:47;100983.66;;;34.66;23.60
19286;BME280;9776;50.798;6.430;2023-05-31T08:41:14;100972.44;;;35.05;23.08
19286;BME280;9776;50.798;6.430;2023-05-31T08:43:41;100978.38;;;35.49;22.65
19286;BME280;9776;50.798;6.430;2023-05-31T08:46:08;100973.19;;;35.66;22.37
19286;BME280;9776;50.798;6.430;2023-05-31T08:48:39;100971.25;;;35.67;22.25
19286;BME280;9776;50.798;6.430;2023-05-31T08:51:07;100977.75;;;36.03;21.90
19286;BME280;9776;50.798;6.430;2023-05-31T08:53:35;100978.91;;;36.29;21.64
19286;BME280;9776;50.798;6.430;2023-05-31T08:56:03;100974.22;;;36.30;21.58
19286;BME280;9776;50.798;6.430;2023-05-31T08:58:31;100974.13;;;36.49;21.39
19286;BME280;9776;50.798;6.430;2023-05-31T09:00:58;100973.25;;;37.16;20.75
19286;BME280;9776;50.798;6.430;2023-05-31T09:03:25;100971.44;;;37.78;19.81
19286;BME280;9776;50.798;6.430;2023-05-31T09:05:53;100966.91;;;38.04;19.97
19286;BME280;9776;50.798;6.430;2023-05-31T09:08:20;100963.47;;;38.30;19.55
19286;BME280;9776;50.798;6.430;2023-05-31T09:10:47;100959.09;;;38.85;18.99
19286;BME280;9776;50.798;6.430;2023-05-31T09:13:15;100955.59;;;39.28;18.95
19286;BME280;9776;50.798;6.430;2023-05-31T09:15:43;100960.25;;;39.53;18.42
19286;BME280;9776;50.798;6.430;2023-05-31T09:18:14;100960.56;;;39.77;17.97
19286;BME280;9776;50.798;6.430;2023-05-31T09:20:42;100949.38;;;39.65;17.89
19286;BME280;9776;50.798;6.430;2023-05-31T09:23:09;100959.19;;;39.92;18.22
19286;BME280;9776;50.798;6.430;2023-05-31T09:25:43;100954.66;;;40.34;17.36
19286;BME280;9776;50.798;6.430;2023-05-31T09:28:10;100941.09;;;40.70;17.08
19286;BME280;9776;50.798;6.430;2023-05-31T09:30:38;100940.53;;;41.26;16.66
19286;BME280;9776;50.798;6.430;2023-05-31T09:33:06;100939.13;;;41.86;15.89
19286;BME280;9776;50.798;6.430;2023-05-31T09:35:32;100939.53;;;42.21;15.71
19286;BME280;9776;50.798;6.430;2023-05-31T09:38:03;100932.06;;;42.85;14.98
19286;BME280;9776;50.798;6.430;2023-05-31T09:40:31;100924.16;;;43.00;14.90
19286;BME280;9776;50.798;6.430;2023-05-31T09:42:58;100917.22;;;42.93;14.49
19286;BME280;9776;50.798;6.430;2023-05-31T09:45:25;100921.09;;;43.32;14.17
19286;BME280;9776;50.798;6.430;2023-05-31T09:47:55;100915.84;;;44.02;13.81
19286;BME280;9776;50.798;6.430;2023-05-31T09:50:22;100912.47;;;44.43;13.42
19286;BME280;9776;50.798;6.430;2023-05-31T09:52:55;100905.06;;;44.32;13.16
19286;BME280;9776;50.798;6.430;2023-05-31T09:55:22;100898.66;;;45.01;12.68
19286;BME280;9776;50.798;6.430;2023-05-31T09:57:51;100897.56;;;45.47;12.14
19286;BME280;9776;50.798;6.430;2023-05-31T10:00:19;100891.75;;;44.95;12.56
19286;BME280;9776;50.798;6.430;2023-05-31T10:02:47;100892.47;;;45.30;12.04
19286;BME280;9776;50.798;6.430;2023-05-31T10:05:16;100883.22;;;45.68;11.67
19286;BME280;9776;50.798;6.430;2023-05-31T10:07:44;100880.09;;;45.96;11.62
19286;BME280;9776;50.798;6.430;2023-05-31T10:10:12;100878.66;;;46.32;11.42
19286;BME280;9776;50.798;6.430;2023-05-31T10:12:42;100879.16;;;46.67;11.39
19286;BME280;9776;50.798;6.430;2023-05-31T10:15:16;100884.19;;;46.54;11.01
19286;BME280;9776;50.798;6.430;2023-05-31T10:17:50;100871.91;;;45.84;10.94
19286;BME280;9776;50.798;6.430;2023-05-31T10:20:24;100867.09;;;46.59;10.58
19286;BME280;9776;50.798;6.430;2023-05-31T10:22:57;100861.47;;;47.22;10.04
19286;BME280;9776;50.798;6.430;2023-05-31T10:25:30;100872.91;;;47.47;10.28
19286;BME280;9776;50.798;6.430;2023-05-31T10:28:01;100873.75;;;47.51;10.00
19286;BME280;9776;50.798;6.430;2023-05-31T10:30:34;100864.44;;;47.84;9.94
19286;BME280;9776;50.798;6.430;2023-05-31T10:33:06;100848.28;;;48.14;9.43
19286;BME280;9776;50.798;6.430;2023-05-31T10:35:34;100854.56;;;48.69;9.45
19286;BME280;9776;50.798;6.430;2023-05-31T10:38:02;100857.03;;;48.81;9.17
19286;BME280;9776;50.798;6.430;2023-05-31T10:40:37;100853.47;;;48.12;9.84
19286;BME280;9776;50.798;6.430;2023-05-31T10:43:11;100845.13;;;47.68;9.94
19286;BME280;9776;50.798;6.430;2023-05-31T10:45:42;100845.50;;;48.14;9.29
19286;BME280;9776;50.798;6.430;2023-05-31T10:48:15;100841.25;;;48.42;9.46
19286;BME280;9776;50.798;6.430;2023-05-31T10:50:54;100846.63;;;48.85;9.12
19286;BME280;9776;50.798;6.430;2023-05-31T10:53:22;100841.91;;;49.07;9.11
19286;BME280;9776;50.798;6.430;2023-05-31T10:55:49;100828.75;;;49.47;9.06
19286;BME280;9776;50.798;6.430;2023-05-31T10:58:26;100830.75;;;49.42;8.97
19286;BME280;9776;50.798;6.430;2023-05-31T11:00:54;100821.53;;;49.77;8.73
19286;BME280;9776;50.798;6.430;2023-05-31T11:03:22;100822.72;;;49.97;8.74
19286;BME280;9776;50.798;6.430;2023-05-31T11:05:57;100820.19;;;50.42;8.50
19286;BME280;9776;50.798;6.430;2023-05-31T11:08:25;100821.97;;;50.87;8.33
19286;BME280;9776;50.798;6.430;2023-05-31T11:10:51;100812.72;;;50.87;8.49
19286;BME280;9776;50.798;6.430;2023-05-31T11:13:18;100802.66;;;50.96;8.40
19286;BME280;9776;50.798;6.430;2023-05-31T11:15:45;100800.53;;;51.15;8.25
19286;BME280;9776;50.798;6.430;2023-05-31T11:18:21;100798.34;;;51.36;8.09
19286;BME280;9776;50.798;6.430;2023-05-31T11:20:48;100797.75;;;51.55;8.10
19286;BME280;9776;50.798;6.430;2023-05-31T11:23:30;100807.78;;;51.64;7.92
19286;BME280;9776;50.798;6.430;2023-05-31T11:26:09;100789.56;;;51.31;8.06
19286;BME280;9776;50.798;6.430;2023-05-31T11:28:54;100794.03;;;51.18;7.90
19286;BME280;9776;50.798;6.430;2023-05-31T11:31:59;100793.41;;;51.47;7.70
19286;BME280;9776;50.798;6.430;2023-05-31T11:34:48;100789.28;;;51.59;7.73
19286;BME280;9776;50.798;6.430;2023-05-31T11:37:15;100792.91;;;51.63;7.75
19286;BME280;9776;50.798;6.430;2023-05-31T11:39:44;100776.53;;;50.92;8.09
19286;BME280;9776;50.798;6.430;2023-05-31T11:42:11;100783.31;;;51.05;7.59
19286;BME280;9776;50.798;6.430;2023-05-31T11:44:42;100781.31;;;51.50;7.65
19286;BME280;9776;50.798;6.430;2023-05-31T11:47:10;100773.59;;;51.58;7.16
19286;BME280;9776;50.798;6.430;2023-05-31T11:49:39;100772.16;;;51.43;7.58
19286;BME280;9776;50.798;6.430;2023-05-31T11:52:06;100771.25;;;51.53;7.33
19286;BME280;9776;50.798;6.430;2023-05-31T11:54:33;100764.16;;;51.38;7.01
19286;BME280;9776;50.798;6.430;2023-05-31T11:57:03;100764.13;;;51.41;7.23
19286;BME280;9776;50.798;6.430;2023-05-31T11:59:32;100763.34;;;51.78;7.23
19286;BME280;9776;50.798;6.430;2023-05-31T12:01:59;100757.88;;;52.01;7.23
19286;BME280;9776;50.798;6.430;2023-05-31T12:04:31;100757.16;;;51.97;7.35
19286;BME280;9776;50.798;6.430;2023-05-31T12:06:57;100754.78;;;51.92;7.05
19286;BME280;9776;50.798;6.430;2023-05-31T12:09:24;100756.59;;;51.31;7.19
19286;BME280;9776;50.798;6.430;2023-05-31T12:11:51;100753.91;;;51.14;7.19
19286;BME280;9776;50.798;6.430;2023-05-31T12:14:20;100750.41;;;50.95;7.34
19286;BME280;9776;50.798;6.430;2023-05-31T12:16:46;100744.94;;;50.74;7.35
19286;BME280;9776;50.798;6.430;2023-05-31T12:19:14;100743.59;;;50.20;7.47
19286;BME280;9776;50.798;6.430;2023-05-31T12:21:41;100728.94;;;49.00;7.90
19286;BME280;9776;50.798;6.430;2023-05-31T12:24:11;100732.09;;;47.29;8.60
19286;BME280;9776;50.798;6.430;2023-05-31T12:26:38;100724.59;;;45.66;9.51
19286;BME280;9776;50.798;6.430;2023-05-31T12:29:05;100721.94;;;43.87;10.22
19286;BME280;9776;50.798;6.430;2023-05-31T12:31:36;100720.06;;;42.26;11.29
19286;BME280;9776;50.798;6.430;2023-05-31T12:34:08;100723.72;;;40.85;12.21
19286;BME280;9776;50.798;6.430;2023-05-31T12:36:42;100729.59;;;39.12;13.05
19286;BME280;9776;50.798;6.430;2023-05-31T12:39:11;100716.13;;;37.74;13.50
19286;BME280;9776;50.798;6.430;2023-05-31T12:41:41;100710.66;;;37.04;14.19
19286;BME280;9776;50.798;6.430;2023-05-31T12:44:09;100701.22;;;36.29;14.74
19286;BME280;9776;50.798;6.430;2023-05-31T12:46:42;100694.00;;;35.84;15.39
19286;BME280;9776;50.798;6.430;2023-05-31T12:49:13;100688.97;;;35.64;15.47
19286;BME280;9776;50.798;6.430;2023-05-31T12:51:41;100694.91;;;35.39;16.08
19286;BME280;9776;50.798;6.430;2023-05-31T12:54:11;100712.50;;;34.78;16.10
19286;BME280;9776;50.798;6.430;2023-05-31T12:56:38;100706.91;;;34.32;16.58
19286;BME280;9776;50.798;6.430;2023-05-31T12:59:05;100709.88;;;33.98;16.99
19286;BME280;9776;50.798;6.430;2023-05-31T13:01:34;100704.75;;;33.92;17.02
19286;BME280;9776;50.798;6.430;2023-05-31T13:04:02;100698.75;;;33.90;16.88
19286;BME280;9776;50.798;6.430;2023-05-31T13:06:28;100701.25;;;33.86;17.06
19286;BME280;9776;50.798;6.430;2023-05-31T13:08:55;100705.63;;;33.87;17.27
19286;BME280;9776;50.798;6.430;2023-05-31T13:11:22;100700.50;;;33.81;17.38